Página principal
METAR-TAF:

METAR-TAF

Aeroportos :

Sal, Cabo Verde

Aeroporto Internacional Amílcar Cabral

latitude: 16-44N, longitude: 022-57W, altura: 54 m

Observação actual do tempo

O boletim foi feito há 45 minutos, às 03:00 UTC
Vento 12 kt de nor-nordeste
Temperatura 22°C
Humidade 73%
Pressão 1016 hPa
Visibilidade 10 km ou mais
Nuvens fragmentadasa uma altura de 1400 ft

METAR: GVAC 230300Z 03012KT 9999 BKN014 22/17 Q1016 NOSIG

Hora: 02:45 (03:45 UTC)

Previsão

O boletim foi feito há 4 horas e 45 minutos, às 23:00 UTC
Previsão válida de 23 às 00 UTC a 24 às 06 UTC
Vento 18 kt de nordeste
Visibilidade 10 km ou mais
Nuvens fragmentadasa uma altura de 1400 ft

TAF: GVAC 222300Z 2300/2406 04018KT 9999 BKN014

Observações e previsões do tempo de mais de 4000 aeroportos (mensagens METAR e TAF).

As estações disponíveis são os pontos amarelos e vermelhos sobre o mapa.

Mova o rato sobre o mapa para ver o nome da estação.

Depois clique no ponto para visualizar as observações e previsões meteorológicas.

Para alterar o mapa : clique nos botões verdes com uma cruz preta para aumentar o zoom; no botão verde com uma pitada de zoom; ou nas setas verdes para mapas adjacentes.


METAR-TAF: